Observations for ABERDEEN DYCE, United Kingdom (EGPD)

EGPD 200620Z AUTO VRB03KT 9999 NCD 11/07 Q1029 NOSIG
EGPD 200550Z AUTO VRB02KT 9999 NCD 11/06 Q1029 NOSIG
EGPD 200520Z AUTO VRB02KT 9999 NCD 08/06 Q1029 NOSIG
EGPD 200450Z AUTO VRB02KT 9999 NCD 09/06 Q1029 NOSIG
EGPD 200420Z AUTO 08001KT 9999 NCD 08/05 Q1029 NOSIG
EGPD 200350Z AUTO VRB03KT 9999 NCD 10/06 Q1029 NOSIG
EGPD 200320Z AUTO VRB02KT 9999 NCD 10/06 Q1030 NOSIG
EGPD 200250Z AUTO 16007KT 9999 NCD 10/06 Q1030 NOSIG
EGPD 200220Z AUTO 16008KT 9999 NCD 09/06 Q1030 NOSIG
EGPD 200150Z AUTO 15008KT 9999 NCD 10/06 Q1030 NOSIG
EGPD 200120Z AUTO 15008KT 9999 NCD 10/06 Q1030 NOSIG
EGPD 200050Z AUTO 15007KT 9999 NCD 11/06 Q1030 NOSIG
EGPD 200020Z AUTO 16008KT 9999 NCD 11/06 Q1030 NOSIG
EGPD 192350Z AUTO 15008KT 9999 NCD 11/06 Q1030 NOSIG
EGPD 192320Z AUTO 17005KT 9999 NCD 11/06 Q1030 NOSIG
EGPD 192250Z AUTO 16010KT 9999 NCD 11/05 Q1030 NOSIG
EGPD 192220Z AUTO 16009KT 9999 NCD 11/05 Q1031 NOSIG
EGPD 192150Z AUTO 16011KT 9999 NCD 11/05 Q1031 NOSIG
EGPD 192120Z AUTO 17012KT 9999 NCD 11/04 Q1031 NOSIG
EGPD 192050Z AUTO 17010KT 9999 NCD 12/04 Q1031 NOSIG
EGPD 192020Z AUTO 18011KT 9999 NCD 13/03 Q1031 NOSIG
EGPD 191950Z AUTO 17010KT 9999 NCD 12/04 Q1031 NOSIG
EGPD 191920Z AUTO 17011KT 9999 NCD 12/04 Q1031 NOSIG
EGPD 191850Z AUTO 17012KT 9999 NCD 13/04 Q1030 NOSIG
EGPD 191820Z AUTO 18009KT 9999 NCD 14/05 Q1030 NOSIG
EGPD 191750Z AUTO 17011KT 9999 NCD 14/04 Q1030 NOSIG
EGPD 191720Z AUTO 17011KT 9999 NCD 15/05 Q1030 NOSIG
EGPD 191650Z AUTO 16014KT 9999 NCD 15/05 Q1030 NOSIG
EGPD 191620Z AUTO 15010KT 9999 NCD 16/06 Q1030 NOSIG
EGPD 191550Z AUTO 16013KT 9999 NCD 16/07 Q1031 NOSIG
EGPD 191520Z AUTO 16014KT 9999 NCD 15/06 Q1031 NOSIG
EGPD 191450Z AUTO 16017KT 9999 NCD 16/06 Q1031 NOSIG
EGPD 191420Z AUTO 17017KT 9999 NCD 16/07 Q1031 NOSIG
EGPD 191350Z AUTO 15015KT 9999 NCD 16/07 Q1031 NOSIG
EGPD 191320Z AUTO 16013KT 9999 NCD 16/07 Q1031 NOSIG
EGPD 191250Z AUTO 15014KT 9999 NCD 16/06 Q1031 NOSIG
EGPD 191220Z AUTO 15013KT 9999 NCD 16/06 Q1031 NOSIG
EGPD 191150Z AUTO 15014KT 9999 NCD 15/07 Q1031 NOSIG
EGPD 191120Z AUTO 17012KT 9999 NCD 15/07 Q1032 NOSIG
EGPD 191050Z AUTO 14009KT 110V180 9999 NCD 14/07 Q1032 NOSIG
EGPD 191020Z AUTO 15009KT 120V190 9999 NCD 14/08 Q1032 NOSIG
EGPD 190950Z 14009KT 9000 NSC 13/07 Q1032 NOSIG 
EGPD 190920Z 14007KT 9000 NSC 12/07 Q1032 NOSIG 
EGPD 190850Z 15007KT 9000 NSC 11/08 Q1032 NOSIG 
EGPD 190820Z 15007KT 120V180 8000 NSC 10/07 Q1032 NOSIG 
EGPD 190750Z 16009KT 8000 NSC 09/07 Q1032 NOSIG 
EGPD 190720Z 15008KT 8000 NSC 09/07 Q1032 NOSIG 
EGPD 190650Z 14006KT 8000 NSC 08/07 Q1032 NOSIG 
EGPD 190620Z AUTO 15006KT 8000 NCD 08/07 Q1032 NOSIG
EGPD 190550Z AUTO 14007KT 7000 NCD 07/06 Q1032 NOSIG